createdAt,value
2022-12-17T00:01:35.229Z,1.89
2022-12-17T00:04:23.395Z,2.00
2022-12-17T00:07:09.095Z,2.08
2022-12-17T00:09:55.454Z,1.96
2022-12-17T00:12:41.874Z,1.91
2022-12-17T00:15:29.249Z,1.98
2022-12-17T00:18:21.338Z,2.06
2022-12-17T00:21:11.395Z,2.30
2022-12-17T00:23:56.843Z,2.08
2022-12-17T00:26:42.613Z,2.03
2022-12-17T00:29:28.111Z,1.94
2022-12-17T00:32:14.804Z,1.83
2022-12-17T00:35:00.127Z,1.19
2022-12-17T00:37:45.799Z,1.21
2022-12-17T00:40:31.158Z,1.02
2022-12-17T00:43:20.198Z,1.32
2022-12-17T00:46:07.367Z,1.43
2022-12-17T00:48:54.744Z,1.54
2022-12-17T00:51:41.883Z,1.44
2022-12-17T00:54:27.511Z,1.30
2022-12-17T00:57:12.853Z,1.14
2022-12-17T00:59:58.034Z,1.15
2022-12-17T01:02:44.461Z,0.94
2022-12-17T01:05:31.377Z,1.09
2022-12-17T01:08:25.487Z,0.78
2022-12-17T01:11:11.095Z,0.55
2022-12-17T01:13:56.824Z,0.58
2022-12-17T01:16:42.558Z,0.49
2022-12-17T01:19:28.031Z,0.50
2022-12-17T01:22:15.033Z,0.56
2022-12-17T01:25:00.313Z,0.41
2022-12-17T01:27:45.842Z,0.54
2022-12-17T01:30:31.276Z,0.45
2022-12-17T01:33:20.033Z,0.55
2022-12-17T01:36:05.551Z,0.82
2022-12-17T01:38:52.694Z,0.90
2022-12-17T01:41:38.673Z,0.91
2022-12-17T01:44:57.108Z,0.85
2022-12-17T01:47:43.127Z,0.98
2022-12-17T01:50:29.772Z,0.76
2022-12-17T01:53:18.549Z,0.74
2022-12-17T01:56:06.786Z,0.71
2022-12-17T01:58:53.728Z,0.86
2022-12-17T02:01:39.922Z,1.00
2022-12-17T02:04:27.369Z,1.11
2022-12-17T02:07:21.983Z,0.97
2022-12-17T02:10:17.828Z,0.79
2022-12-17T02:13:09.844Z,0.49
2022-12-17T02:16:04.107Z,0.67
2022-12-17T02:19:01.797Z,0.51
2022-12-17T02:21:49.611Z,0.79
2022-12-17T02:24:46.628Z,0.85
2022-12-17T02:27:34.166Z,1.18
2022-12-17T02:30:25.103Z,1.23
2022-12-17T02:33:12.132Z,1.31
2022-12-17T02:36:13.196Z,0.71
2022-12-17T02:38:59.147Z,0.58
2022-12-17T02:41:47.738Z,0.76
2022-12-17T02:44:39.203Z,0.94
2022-12-17T02:47:28.562Z,0.96
2022-12-17T02:50:15.018Z,1.00
2022-12-17T02:53:06.501Z,0.91
2022-12-17T02:55:53.035Z,0.90
2022-12-17T02:58:38.788Z,0.52
2022-12-17T03:01:26.223Z,0.41
2022-12-17T03:04:12.046Z,0.44
2022-12-17T03:06:58.488Z,0.46
2022-12-17T03:09:44.886Z,0.77
2022-12-17T03:12:30.442Z,0.72
2022-12-17T03:15:15.800Z,0.94
2022-12-17T03:18:02.886Z,1.15
2022-12-17T03:20:48.371Z,1.12
2022-12-17T03:23:34.410Z,0.87
2022-12-17T03:26:21.549Z,0.95
2022-12-17T03:29:07.612Z,1.27
2022-12-17T03:31:53.067Z,1.26
2022-12-17T03:34:39.827Z,1.03
2022-12-17T03:37:25.384Z,0.70
2022-12-17T03:40:10.847Z,0.65
2022-12-17T03:42:56.527Z,0.77
2022-12-17T03:45:42.252Z,0.85
2022-12-17T03:48:29.951Z,0.82
2022-12-17T03:51:17.579Z,0.60
2022-12-17T03:54:04.071Z,0.93
2022-12-17T03:56:49.563Z,0.93
2022-12-17T03:59:35.123Z,1.00
2022-12-17T04:02:32.429Z,0.86
2022-12-17T04:05:20.383Z,0.91
2022-12-17T04:08:07.210Z,0.72
2022-12-17T04:10:52.439Z,0.54
2022-12-17T04:13:41.101Z,0.57
2022-12-17T04:16:31.130Z,0.61
2022-12-17T04:19:17.265Z,0.71
2022-12-17T04:22:02.936Z,0.74
2022-12-17T04:24:50.033Z,0.62
2022-12-17T04:27:35.595Z,0.54
2022-12-17T04:30:21.231Z,0.66
2022-12-17T04:33:07.098Z,0.70
2022-12-17T04:35:52.510Z,0.76
2022-12-17T04:38:38.281Z,0.75
2022-12-17T04:41:25.326Z,1.09
2022-12-17T04:44:10.741Z,0.85
2022-12-17T04:46:56.229Z,0.79
2022-12-17T04:49:41.838Z,0.99
2022-12-17T04:52:27.445Z,0.97
2022-12-17T04:55:12.810Z,0.84
2022-12-17T04:57:59.394Z,0.82
2022-12-17T05:00:44.961Z,1.15
2022-12-17T05:03:33.054Z,1.20
2022-12-17T05:06:18.972Z,1.18
2022-12-17T05:09:05.010Z,0.94
2022-12-17T05:11:50.671Z,0.80
2022-12-17T05:14:37.452Z,0.90
2022-12-17T05:17:22.874Z,0.90
2022-12-17T05:20:08.175Z,1.21
2022-12-17T05:22:53.868Z,1.27
2022-12-17T05:25:39.507Z,1.02
2022-12-17T05:28:25.031Z,1.10
2022-12-17T05:31:12.789Z,1.27
2022-12-17T05:34:00.641Z,1.30
2022-12-17T05:36:46.386Z,1.39
2022-12-17T05:39:31.709Z,1.41
2022-12-17T05:42:17.047Z,1.33
2022-12-17T05:45:03.723Z,1.40
2022-12-17T05:47:50.421Z,1.17
2022-12-17T05:50:35.623Z,0.88
2022-12-17T05:53:22.853Z,0.71
2022-12-17T05:56:08.718Z,0.96
2022-12-17T05:58:54.012Z,1.02
2022-12-17T06:01:39.693Z,1.18
2022-12-17T06:04:28.177Z,0.92
2022-12-17T06:07:13.519Z,1.08
2022-12-17T06:09:58.867Z,0.79
2022-12-17T06:12:44.223Z,1.06
2022-12-17T06:15:29.597Z,1.12
2022-12-17T06:18:17.285Z,1.04
2022-12-17T06:21:04.676Z,1.22
2022-12-17T06:23:55.182Z,1.04
2022-12-17T06:26:40.858Z,0.80
2022-12-17T06:29:28.152Z,0.74
2022-12-17T06:32:14.485Z,0.88
2022-12-17T06:34:59.847Z,0.97
2022-12-17T06:37:46.843Z,0.91
2022-12-17T06:40:32.140Z,0.98
2022-12-17T06:43:26.136Z,1.06
2022-12-17T06:46:11.536Z,1.03
2022-12-17T06:48:56.882Z,1.22
2022-12-17T06:51:47.661Z,1.16
2022-12-17T06:54:34.354Z,1.10
2022-12-17T06:57:20.273Z,0.95
2022-12-17T07:00:06.236Z,0.97
2022-12-17T07:02:52.563Z,1.09
2022-12-17T07:05:38.097Z,1.11
2022-12-17T07:08:23.514Z,1.32
2022-12-17T07:11:10.635Z,1.33
2022-12-17T07:13:56.180Z,1.31
2022-12-17T07:16:41.795Z,1.46
2022-12-17T07:19:27.875Z,1.45
2022-12-17T07:22:14.185Z,1.26
2022-12-17T07:25:00.203Z,1.12
2022-12-17T07:27:47.429Z,1.29
2022-12-17T07:30:32.925Z,1.34
2022-12-17T07:33:19.303Z,1.43
2022-12-17T07:36:04.662Z,1.42
2022-12-17T07:38:50.548Z,1.32
2022-12-17T07:41:36.519Z,1.32
2022-12-17T07:44:26.119Z,1.18
2022-12-17T07:47:11.499Z,1.09
2022-12-17T07:49:56.911Z,0.95
2022-12-17T07:52:42.717Z,1.06
2022-12-17T07:55:28.188Z,0.87
2022-12-17T07:58:17.889Z,0.88
2022-12-17T08:01:04.769Z,1.13
2022-12-17T08:03:51.216Z,1.04
2022-12-17T08:06:37.565Z,0.97
2022-12-17T08:09:22.848Z,0.97
2022-12-17T08:12:08.191Z,1.06
2022-12-17T08:14:53.436Z,0.79
2022-12-17T08:17:40.095Z,0.90
2022-12-17T08:20:26.804Z,0.79
2022-12-17T08:23:19.455Z,0.86
2022-12-17T08:26:04.853Z,0.99
2022-12-17T08:28:51.187Z,1.08
2022-12-17T08:31:37.740Z,0.78
2022-12-17T08:34:24.812Z,0.78
2022-12-17T08:37:10.137Z,0.55
2022-12-17T08:39:56.020Z,0.55
2022-12-17T08:42:50.416Z,0.58
2022-12-17T08:45:35.789Z,0.58
2022-12-17T08:48:29.582Z,0.44
2022-12-17T08:51:16.442Z,0.68
2022-12-17T08:54:01.835Z,0.72
2022-12-17T08:56:47.086Z,0.66
2022-12-17T08:59:32.697Z,0.60
2022-12-17T09:02:18.227Z,0.41
2022-12-17T09:05:03.698Z,0.19
2022-12-17T09:07:50.350Z,0.08
2022-12-17T09:10:35.805Z,0.56
2022-12-17T09:13:21.894Z,0.78
2022-12-17T09:16:11.005Z,0.88
2022-12-17T09:18:56.399Z,0.99
2022-12-17T09:21:42.476Z,0.78
2022-12-17T09:24:33.092Z,0.77
2022-12-17T09:27:21.895Z,0.71
2022-12-17T09:30:07.379Z,0.71
2022-12-17T09:32:52.805Z,0.70
2022-12-17T09:35:37.301Z,0.76
2022-12-17T09:38:22.822Z,0.71
2022-12-17T09:41:10.360Z,0.88
2022-12-17T09:44:03.826Z,0.89
2022-12-17T09:46:54.548Z,0.82
2022-12-17T09:49:43.364Z,0.74
2022-12-17T09:52:38.498Z,0.98
2022-12-17T09:55:41.119Z,0.83
2022-12-17T09:58:38.093Z,0.83
2022-12-17T10:01:24.756Z,0.80
2022-12-17T10:04:10.724Z,0.82
2022-12-17T10:06:56.163Z,0.86
2022-12-17T10:09:44.359Z,1.03
2022-12-17T10:12:33.368Z,1.14
2022-12-17T10:15:19.700Z,0.88
2022-12-17T10:18:05.269Z,0.82
2022-12-17T10:20:57.090Z,0.72
2022-12-17T10:23:44.147Z,0.62
2022-12-17T10:26:38.402Z,0.83
2022-12-17T10:29:28.482Z,0.91
2022-12-17T10:32:18.963Z,0.87
2022-12-17T10:35:05.829Z,0.83
2022-12-17T10:37:54.419Z,0.75
2022-12-17T10:40:44.416Z,0.84
2022-12-17T10:43:44.350Z,0.84
2022-12-17T10:46:29.708Z,0.81
2022-12-17T10:49:29.365Z,0.87
2022-12-17T10:52:19.446Z,0.52
2022-12-17T10:55:15.154Z,0.70
2022-12-17T10:58:02.619Z,0.79
2022-12-17T11:00:50.771Z,1.08
2022-12-17T11:03:56.940Z,0.97
2022-12-17T11:06:44.667Z,0.91
2022-12-17T11:09:40.348Z,0.84
2022-12-17T11:12:30.766Z,1.05
2022-12-17T11:15:23.269Z,1.29
2022-12-17T11:18:11.752Z,1.14
2022-12-17T11:21:06.040Z,1.24
2022-12-17T11:23:55.296Z,1.13
2022-12-17T11:26:43.484Z,1.08
2022-12-17T11:29:32.320Z,1.16
2022-12-17T11:32:34.136Z,1.18
2022-12-17T11:35:28.642Z,1.17
2022-12-17T11:38:29.058Z,1.26
2022-12-17T11:41:26.363Z,1.39
2022-12-17T11:44:21.710Z,1.36
2022-12-17T11:47:14.295Z,1.42
2022-12-17T11:50:08.194Z,1.37
2022-12-17T11:53:04.099Z,1.48
2022-12-17T11:55:57.707Z,1.70
2022-12-17T11:58:53.588Z,1.67
2022-12-17T12:01:46.703Z,1.51
2022-12-17T12:04:45.443Z,1.53
2022-12-17T12:07:38.460Z,1.53
2022-12-17T12:10:32.923Z,1.61
2022-12-17T12:13:29.060Z,1.48
2022-12-17T12:16:25.425Z,1.62
2022-12-17T12:19:19.221Z,1.73
2022-12-17T12:22:15.952Z,2.08
2022-12-17T12:25:27.162Z,1.90
2022-12-17T12:28:22.263Z,1.91
2022-12-17T12:31:15.229Z,2.08
2022-12-17T12:34:09.036Z,2.20
2022-12-17T12:36:56.385Z,2.32
2022-12-17T12:39:45.915Z,2.27
2022-12-17T12:42:38.008Z,2.40
2022-12-17T12:45:36.271Z,2.19
2022-12-17T12:48:28.577Z,2.28
2022-12-17T12:51:21.047Z,1.95
2022-12-17T12:54:15.390Z,1.99
2022-12-17T12:57:06.024Z,2.06
2022-12-17T12:59:53.696Z,2.24
2022-12-17T13:02:50.676Z,2.62
2022-12-17T13:05:34.508Z,2.36
2022-12-17T13:08:06.806Z,2.28
2022-12-17T13:10:35.761Z,2.21
2022-12-17T13:13:14.379Z,2.12
2022-12-17T13:15:47.220Z,2.24
2022-12-17T13:18:25.163Z,2.39
2022-12-17T13:21:02.607Z,2.57
2022-12-17T13:23:35.049Z,2.49
2022-12-17T13:26:20.429Z,2.58
2022-12-17T13:29:13.027Z,2.49
2022-12-17T13:31:59.674Z,2.45
2022-12-17T13:34:36.799Z,2.52
2022-12-17T13:37:13.340Z,2.64
2022-12-17T13:39:49.589Z,2.61
2022-12-17T13:42:21.396Z,2.50
2022-12-17T13:44:49.911Z,2.47
2022-12-17T13:47:23.156Z,2.73
2022-12-17T13:50:17.063Z,2.49
2022-12-17T13:52:40.363Z,2.58
2022-12-17T13:55:14.571Z,2.63
2022-12-17T13:57:47.164Z,2.48
2022-12-17T14:00:22.359Z,2.64
2022-12-17T14:02:51.482Z,2.84
2022-12-17T14:05:26.811Z,2.85
2022-12-17T14:07:55.465Z,2.68
2022-12-17T14:10:25.860Z,2.62
2022-12-17T14:13:04.356Z,2.51
2022-12-17T14:15:33.623Z,2.58
2022-12-17T14:18:02.568Z,2.51
2022-12-17T14:20:33.835Z,2.43
2022-12-17T14:23:05.247Z,2.32
2022-12-17T14:25:38.093Z,2.55
2022-12-17T14:28:08.084Z,2.61
2022-12-17T14:30:46.369Z,2.58
2022-12-17T14:33:28.807Z,2.49
2022-12-17T14:35:58.203Z,2.56
2022-12-17T14:38:38.040Z,2.51
2022-12-17T14:41:27.057Z,2.29
2022-12-17T14:44:00.507Z,2.32
2022-12-17T14:46:28.652Z,2.43
2022-12-17T14:49:03.814Z,2.24
2022-12-17T14:51:35.024Z,2.23
2022-12-17T14:54:19.629Z,2.27
2022-12-17T14:56:50.667Z,2.29
2022-12-17T14:59:27.358Z,2.49
2022-12-17T15:01:56.479Z,2.23
2022-12-17T15:04:25.023Z,2.14
2022-12-17T15:06:55.824Z,2.13
2022-12-17T15:09:23.732Z,2.03
2022-12-17T15:11:53.042Z,2.33
2022-12-17T15:14:20.901Z,2.18
2022-12-17T15:16:48.930Z,2.13
2022-12-17T15:19:17.151Z,1.97
2022-12-17T15:21:45.160Z,1.97
2022-12-17T15:24:18.276Z,2.15
2022-12-17T15:26:47.145Z,2.19
2022-12-17T15:29:16.438Z,2.15
2022-12-17T15:31:44.437Z,2.18
2022-12-17T15:34:13.393Z,2.06
2022-12-17T15:36:41.548Z,2.16
2022-12-17T15:39:09.735Z,1.68
2022-12-17T15:41:55.066Z,1.81
2022-12-17T15:44:24.284Z,1.84
2022-12-17T15:46:52.261Z,1.98
2022-12-17T15:49:22.991Z,1.65
2022-12-17T15:51:51.054Z,1.65
2022-12-17T15:54:18.962Z,1.69
2022-12-17T15:56:53.767Z,1.83
2022-12-17T15:59:22.310Z,1.82
2022-12-17T16:01:51.862Z,1.63
2022-12-17T16:04:24.899Z,1.64
2022-12-17T16:06:53.509Z,1.59
2022-12-17T16:09:24.457Z,1.66
2022-12-17T16:11:54.733Z,1.56
2022-12-17T16:14:25.000Z,1.67
2022-12-17T16:16:54.278Z,1.44
2022-12-17T16:19:23.564Z,1.31
2022-12-17T16:21:51.486Z,1.24
2022-12-17T16:24:21.988Z,1.36
2022-12-17T16:26:53.331Z,1.17
2022-12-17T16:29:21.614Z,1.43
2022-12-17T16:31:50.200Z,1.21
2022-12-17T16:34:19.691Z,0.98
2022-12-17T16:36:47.689Z,0.99
2022-12-17T16:39:18.359Z,1.12
2022-12-17T16:41:48.887Z,1.23
2022-12-17T16:44:16.839Z,1.02
2022-12-17T16:46:47.389Z,0.99
2022-12-17T16:49:18.244Z,1.02
2022-12-17T16:51:54.188Z,1.13
2022-12-17T16:54:25.959Z,1.23
2022-12-17T16:56:54.893Z,1.02
2022-12-17T16:59:24.459Z,0.99
2022-12-17T17:01:53.738Z,0.92
2022-12-17T17:04:23.979Z,0.94
2022-12-17T17:06:54.815Z,1.06
2022-12-17T17:09:23.837Z,1.14
2022-12-17T17:11:52.614Z,1.12
2022-12-17T17:14:22.278Z,1.02
2022-12-17T17:16:50.357Z,1.20
2022-12-17T17:19:19.711Z,1.27
2022-12-17T17:21:50.635Z,1.29
2022-12-17T17:24:22.437Z,1.32
2022-12-17T17:26:51.293Z,0.97
2022-12-17T17:29:19.756Z,1.12
2022-12-17T17:34:38.831Z,0.99
2022-12-17T17:37:06.836Z,0.88
2022-12-17T17:39:36.522Z,0.84
2022-12-17T17:42:05.248Z,0.78
2022-12-17T17:44:33.147Z,0.93
2022-12-17T17:47:01.599Z,1.23
2022-12-17T17:49:30.150Z,1.20
2022-12-17T17:52:13.605Z,1.30
2022-12-17T17:54:42.873Z,1.27
2022-12-17T17:57:11.762Z,1.19
2022-12-17T17:59:40.339Z,1.01
2022-12-17T18:02:10.724Z,0.97
2022-12-17T18:04:39.930Z,0.87
2022-12-17T18:07:24.911Z,0.66
2022-12-17T18:09:56.547Z,0.77
2022-12-17T18:12:42.040Z,0.47
2022-12-17T18:15:15.860Z,0.62
2022-12-17T18:17:46.163Z,0.46
2022-12-17T18:20:15.158Z,0.50
2022-12-17T18:22:43.768Z,0.62
2022-12-17T18:25:13.036Z,0.51
2022-12-17T18:27:41.033Z,0.58
2022-12-17T18:30:10.429Z,0.48
2022-12-17T18:33:03.181Z,0.28
2022-12-17T18:35:31.432Z,0.19
2022-12-17T18:37:59.975Z,0.34
2022-12-17T18:40:33.273Z,0.23
2022-12-17T18:43:19.058Z,0.27
2022-12-17T18:45:46.960Z,0.30
2022-12-17T18:48:15.124Z,0.15
2022-12-17T18:50:43.255Z,0.34
2022-12-17T18:53:11.445Z,0.28
2022-12-17T18:55:41.241Z,0.33
2022-12-17T18:58:10.476Z,0.14
2022-12-17T19:00:39.114Z,0.25
2022-12-17T19:03:08.367Z,0.46
2022-12-17T19:05:45.227Z,0.43
2022-12-17T19:08:14.496Z,0.23
2022-12-17T19:10:44.373Z,0.23
2022-12-17T19:13:12.271Z,0.11
2022-12-17T19:15:40.164Z,0.29
2022-12-17T19:18:08.072Z,0.36
2022-12-17T19:20:36.129Z,0.28
2022-12-17T19:23:04.120Z,0.27
2022-12-17T19:25:32.306Z,0.45
2022-12-17T19:28:01.792Z,0.37
2022-12-17T19:30:29.940Z,0.20
2022-12-17T19:32:57.852Z,0.33
2022-12-17T19:35:25.764Z,0.31
2022-12-17T19:37:53.664Z,0.31
2022-12-17T19:40:21.674Z,0.36
2022-12-17T19:42:49.690Z,0.46
2022-12-17T19:45:19.131Z,0.58
2022-12-17T19:47:47.323Z,0.34
2022-12-17T19:50:15.669Z,0.37
2022-12-17T19:52:43.616Z,0.57
2022-12-17T19:55:11.481Z,0.65
2022-12-17T19:57:39.378Z,0.52
2022-12-17T20:00:08.456Z,0.35
2022-12-17T20:02:41.950Z,0.30
2022-12-17T20:05:10.547Z,0.18
2022-12-17T20:07:38.609Z,0.29
2022-12-17T20:10:34.086Z,0.44
2022-12-17T20:13:02.317Z,0.67
2022-12-17T20:15:31.171Z,0.58
2022-12-17T20:18:00.430Z,0.52
2022-12-17T20:20:28.564Z,0.70
2022-12-17T20:22:56.800Z,0.64
2022-12-17T20:25:24.728Z,0.61
2022-12-17T20:27:52.686Z,0.71
2022-12-17T20:30:26.852Z,0.56
2022-12-17T20:32:54.889Z,0.49
2022-12-17T20:35:28.605Z,0.51
2022-12-17T20:37:56.630Z,0.75
2022-12-17T20:40:24.630Z,0.77
2022-12-17T20:42:52.709Z,0.72
2022-12-17T20:45:20.845Z,0.84
2022-12-17T20:47:48.755Z,0.86
2022-12-17T20:50:16.724Z,0.83
2022-12-17T20:52:45.963Z,0.78
2022-12-17T20:55:13.874Z,0.75
2022-12-17T20:57:42.275Z,0.73
2022-12-17T21:00:11.717Z,0.60
2022-12-17T21:02:39.907Z,0.58
2022-12-17T21:05:08.560Z,0.56
2022-12-17T21:07:36.514Z,0.22
2022-12-17T21:10:07.121Z,0.08
2022-12-17T21:12:49.123Z,0.11
2022-12-17T21:15:17.611Z,0.20
2022-12-17T21:17:45.680Z,0.33
2022-12-17T21:20:13.713Z,0.03
2022-12-17T21:22:42.915Z,0.07
2022-12-17T21:25:12.463Z,-0.07
2022-12-17T21:27:44.528Z,-0.25
2022-12-17T21:30:15.850Z,-0.28
2022-12-17T21:32:43.937Z,-0.19
2022-12-17T21:35:12.659Z,0.18
2022-12-17T21:37:40.654Z,0.24
2022-12-17T21:40:09.846Z,0.41
2022-12-17T21:42:56.512Z,0.39
2022-12-17T21:45:25.157Z,0.55
2022-12-17T21:47:53.223Z,0.67
2022-12-17T21:50:21.240Z,0.37
2022-12-17T21:52:49.110Z,0.16
2022-12-17T21:55:17.249Z,0.20
2022-12-17T21:57:46.596Z,0.22
2022-12-17T22:00:15.795Z,-0.33
2022-12-17T22:02:44.000Z,-0.59
2022-12-17T22:05:17.579Z,-0.36
2022-12-17T22:07:47.867Z,-0.15
2022-12-17T22:10:40.615Z,0.17
2022-12-17T22:13:27.245Z,0.27
2022-12-17T22:15:55.409Z,0.27
2022-12-17T22:18:23.364Z,0.21
2022-12-17T22:20:59.114Z,0.27
2022-12-17T22:23:27.217Z,-0.11
2022-12-17T22:25:55.664Z,-0.24
2022-12-17T22:28:34.802Z,0.04
2022-12-17T22:31:23.305Z,-0.08
2022-12-17T22:34:16.945Z,-0.02
2022-12-17T22:38:59.850Z,-0.48
2022-12-17T22:42:54.843Z,-0.35
2022-12-17T22:44:41.585Z,-0.33
2022-12-17T22:45:24.712Z,-0.47
2022-12-17T22:47:53.055Z,-0.33
2022-12-17T22:50:27.472Z,-0.24
2022-12-17T22:52:59.445Z,-0.20
2022-12-17T22:55:27.894Z,-0.25
2022-12-17T22:57:56.250Z,-0.05
2022-12-17T23:00:27.711Z,0.00
2022-12-17T23:02:56.472Z,0.06
2022-12-17T23:05:25.216Z,0.10
2022-12-17T23:07:53.870Z,0.11
2022-12-17T23:10:22.763Z,-0.23
2022-12-17T23:13:41.130Z,-0.06
2022-12-17T23:16:13.278Z,-0.11
2022-12-17T23:18:41.813Z,-0.21
2022-12-17T23:21:11.303Z,-0.45
2022-12-17T23:23:40.272Z,-0.37
2022-12-17T23:26:09.851Z,-0.33
2022-12-17T23:28:41.277Z,-0.60
2022-12-17T23:31:12.949Z,-0.71
2022-12-17T23:33:42.677Z,-1.10
2022-12-17T23:36:13.234Z,-0.85
2022-12-17T23:38:41.429Z,-0.94
2022-12-17T23:41:11.937Z,-1.00
2022-12-17T23:43:40.862Z,-1.01
2022-12-17T23:46:11.380Z,-1.23
2022-12-17T23:48:45.380Z,-0.98
2022-12-17T23:51:14.773Z,-0.83
2022-12-17T23:54:15.135Z,-0.51
